sensor_id;sensor_type;location;lat;lon;timestamp;temperature;humidity
27544;DHT22;17996;51.056;3.656;2023-07-13T00:02:23;19.10;99.90
27544;DHT22;17996;51.056;3.656;2023-07-13T00:04:49;19.10;99.90
27544;DHT22;17996;51.056;3.656;2023-07-13T00:07:16;19.00;99.90
27544;DHT22;17996;51.056;3.656;2023-07-13T00:09:44;19.00;99.90
27544;DHT22;17996;51.056;3.656;2023-07-13T00:12:24;19.00;99.90
27544;DHT22;17996;51.056;3.656;2023-07-13T00:14:50;18.90;99.90
27544;DHT22;17996;51.056;3.656;2023-07-13T00:17:16;18.90;99.90
27544;DHT22;17996;51.056;3.656;2023-07-13T00:19:41;18.90;99.90
27544;DHT22;17996;51.056;3.656;2023-07-13T00:22:07;18.80;99.90
27544;DHT22;17996;51.056;3.656;2023-07-13T00:24:33;18.90;99.90
27544;DHT22;17996;51.056;3.656;2023-07-13T00:26:58;18.80;99.90
27544;DHT22;17996;51.056;3.656;2023-07-13T00:29:26;18.80;99.90
27544;DHT22;17996;51.056;3.656;2023-07-13T00:31:51;18.70;99.90
27544;DHT22;17996;51.056;3.656;2023-07-13T00:34:17;18.70;99.90
27544;DHT22;17996;51.056;3.656;2023-07-13T00:36:43;18.70;99.90
27544;DHT22;17996;51.056;3.656;2023-07-13T00:39:08;18.70;99.90
27544;DHT22;17996;51.056;3.656;2023-07-13T00:41:34;18.70;99.90
27544;DHT22;17996;51.056;3.656;2023-07-13T00:44:01;18.70;99.90
27544;DHT22;17996;51.056;3.656;2023-07-13T00:46:29;18.60;99.90
27544;DHT22;17996;51.056;3.656;2023-07-13T00:49:00;18.60;99.90
27544;DHT22;17996;51.056;3.656;2023-07-13T00:51:51;18.60;99.90
27544;DHT22;17996;51.056;3.656;2023-07-13T00:54:24;18.60;99.90
27544;DHT22;17996;51.056;3.656;2023-07-13T00:56:53;18.60;99.90
27544;DHT22;17996;51.056;3.656;2023-07-13T00:59:20;18.50;99.90
27544;DHT22;17996;51.056;3.656;2023-07-13T01:01:47;18.50;99.90
27544;DHT22;17996;51.056;3.656;2023-07-13T01:04:13;18.50;99.90
27544;DHT22;17996;51.056;3.656;2023-07-13T01:06:40;18.50;99.90
27544;DHT22;17996;51.056;3.656;2023-07-13T01:09:08;18.50;99.90
27544;DHT22;17996;51.056;3.656;2023-07-13T01:11:34;18.50;99.90
27544;DHT22;17996;51.056;3.656;2023-07-13T01:14:01;18.40;99.90
27544;DHT22;17996;51.056;3.656;2023-07-13T01:16:37;18.40;99.90
27544;DHT22;17996;51.056;3.656;2023-07-13T01:21:55;18.40;99.90
27544;DHT22;17996;51.056;3.656;2023-07-13T01:24:21;18.40;99.90
27544;DHT22;17996;51.056;3.656;2023-07-13T01:26:46;18.40;99.90
27544;DHT22;17996;51.056;3.656;2023-07-13T01:29:12;18.40;99.90
27544;DHT22;17996;51.056;3.656;2023-07-13T01:31:38;18.40;99.90
27544;DHT22;17996;51.056;3.656;2023-07-13T01:34:03;18.40;99.90
27544;DHT22;17996;51.056;3.656;2023-07-13T01:36:30;18.40;99.90
27544;DHT22;17996;51.056;3.656;2023-07-13T01:38:56;18.30;99.90
27544;DHT22;17996;51.056;3.656;2023-07-13T01:41:22;18.30;99.90
27544;DHT22;17996;51.056;3.656;2023-07-13T01:43:47;18.20;99.90
27544;DHT22;17996;51.056;3.656;2023-07-13T01:46:13;18.20;99.90
27544;DHT22;17996;51.056;3.656;2023-07-13T01:48:39;18.20;99.90
27544;DHT22;17996;51.056;3.656;2023-07-13T01:51:04;18.10;99.90
27544;DHT22;17996;51.056;3.656;2023-07-13T01:53:30;18.10;99.90
27544;DHT22;17996;51.056;3.656;2023-07-13T01:55:56;18.10;99.90
27544;DHT22;17996;51.056;3.656;2023-07-13T01:58:21;18.10;99.90
27544;DHT22;17996;51.056;3.656;2023-07-13T02:00:49;18.10;99.90
27544;DHT22;17996;51.056;3.656;2023-07-13T02:03:15;18.10;99.90
27544;DHT22;17996;51.056;3.656;2023-07-13T02:05:44;18.10;99.90
27544;DHT22;17996;51.056;3.656;2023-07-13T02:08:10;18.10;99.90
27544;DHT22;17996;51.056;3.656;2023-07-13T02:10:37;18.10;99.90
27544;DHT22;17996;51.056;3.656;2023-07-13T02:13:06;18.20;99.90
27544;DHT22;17996;51.056;3.656;2023-07-13T02:15:31;18.20;99.90
27544;DHT22;17996;51.056;3.656;2023-07-13T02:17:57;18.30;99.90
27544;DHT22;17996;51.056;3.656;2023-07-13T02:20:24;18.30;99.90
27544;DHT22;17996;51.056;3.656;2023-07-13T02:22:50;18.30;99.90
27544;DHT22;17996;51.056;3.656;2023-07-13T02:25:15;18.30;99.90
27544;DHT22;17996;51.056;3.656;2023-07-13T02:27:41;18.20;99.90
27544;DHT22;17996;51.056;3.656;2023-07-13T02:30:07;18.20;99.90
27544;DHT22;17996;51.056;3.656;2023-07-13T02:32:33;18.20;99.90
27544;DHT22;17996;51.056;3.656;2023-07-13T02:35:00;18.10;99.90
27544;DHT22;17996;51.056;3.656;2023-07-13T02:37:26;18.10;99.90
27544;DHT22;17996;51.056;3.656;2023-07-13T02:39:52;18.00;99.90
27544;DHT22;17996;51.056;3.656;2023-07-13T02:42:17;18.00;99.90
27544;DHT22;17996;51.056;3.656;2023-07-13T02:44:43;18.00;99.90
27544;DHT22;17996;51.056;3.656;2023-07-13T02:47:09;18.00;99.90
27544;DHT22;17996;51.056;3.656;2023-07-13T02:49:34;18.00;99.90
27544;DHT22;17996;51.056;3.656;2023-07-13T02:52:00;18.00;99.90
27544;DHT22;17996;51.056;3.656;2023-07-13T02:54:26;18.00;99.90
27544;DHT22;17996;51.056;3.656;2023-07-13T02:56:51;18.00;99.90
27544;DHT22;17996;51.056;3.656;2023-07-13T02:59:17;17.90;99.90
27544;DHT22;17996;51.056;3.656;2023-07-13T03:01:42;17.90;99.90
27544;DHT22;17996;51.056;3.656;2023-07-13T03:04:08;17.90;99.90
27544;DHT22;17996;51.056;3.656;2023-07-13T03:06:34;17.90;99.90
27544;DHT22;17996;51.056;3.656;2023-07-13T03:09:00;17.80;99.90
27544;DHT22;17996;51.056;3.656;2023-07-13T03:11:26;17.90;99.90
27544;DHT22;17996;51.056;3.656;2023-07-13T03:13:52;17.80;99.90
27544;DHT22;17996;51.056;3.656;2023-07-13T03:16:18;17.80;99.90
27544;DHT22;17996;51.056;3.656;2023-07-13T03:18:44;17.80;99.90
27544;DHT22;17996;51.056;3.656;2023-07-13T03:21:10;17.90;99.90
27544;DHT22;17996;51.056;3.656;2023-07-13T03:23:36;17.90;99.90
27544;DHT22;17996;51.056;3.656;2023-07-13T03:26:18;17.90;99.90
27544;DHT22;17996;51.056;3.656;2023-07-13T03:28:44;17.90;99.90
27544;DHT22;17996;51.056;3.656;2023-07-13T03:31:19;17.90;99.90
27544;DHT22;17996;51.056;3.656;2023-07-13T03:33:45;18.00;99.90
27544;DHT22;17996;51.056;3.656;2023-07-13T03:36:21;18.00;99.90
27544;DHT22;17996;51.056;3.656;2023-07-13T03:38:48;18.00;99.90
27544;DHT22;17996;51.056;3.656;2023-07-13T03:41:15;18.00;99.90
27544;DHT22;17996;51.056;3.656;2023-07-13T03:43:42;18.00;99.90
27544;DHT22;17996;51.056;3.656;2023-07-13T03:46:08;17.90;99.90
27544;DHT22;17996;51.056;3.656;2023-07-13T03:48:34;18.00;99.90
27544;DHT22;17996;51.056;3.656;2023-07-13T03:51:00;18.00;99.90
27544;DHT22;17996;51.056;3.656;2023-07-13T03:53:25;17.90;99.90
27544;DHT22;17996;51.056;3.656;2023-07-13T03:55:51;18.00;99.90
27544;DHT22;17996;51.056;3.656;2023-07-13T03:58:44;18.00;99.90
27544;DHT22;17996;51.056;3.656;2023-07-13T04:01:11;18.00;99.90
27544;DHT22;17996;51.056;3.656;2023-07-13T04:03:38;18.00;99.90
27544;DHT22;17996;51.056;3.656;2023-07-13T04:06:05;18.10;99.90
27544;DHT22;17996;51.056;3.656;2023-07-13T04:08:33;18.10;99.90
27544;DHT22;17996;51.056;3.656;2023-07-13T04:11:01;18.10;99.90
27544;DHT22;17996;51.056;3.656;2023-07-13T04:13:28;18.20;99.90
27544;DHT22;17996;51.056;3.656;2023-07-13T04:15:54;18.20;99.90
27544;DHT22;17996;51.056;3.656;2023-07-13T04:18:20;18.20;99.90
27544;DHT22;17996;51.056;3.656;2023-07-13T04:20:47;18.30;99.90
27544;DHT22;17996;51.056;3.656;2023-07-13T04:23:13;18.30;99.90
27544;DHT22;17996;51.056;3.656;2023-07-13T04:25:42;18.40;99.90
27544;DHT22;17996;51.056;3.656;2023-07-13T04:28:08;18.40;99.90
27544;DHT22;17996;51.056;3.656;2023-07-13T04:30:34;18.40;99.90
27544;DHT22;17996;51.056;3.656;2023-07-13T04:33:00;18.40;99.90
27544;DHT22;17996;51.056;3.656;2023-07-13T04:35:25;18.40;99.90
27544;DHT22;17996;51.056;3.656;2023-07-13T04:37:51;18.40;99.90
27544;DHT22;17996;51.056;3.656;2023-07-13T04:40:17;18.40;99.90
27544;DHT22;17996;51.056;3.656;2023-07-13T04:42:44;18.50;99.90
27544;DHT22;17996;51.056;3.656;2023-07-13T04:45:10;18.40;99.90
27544;DHT22;17996;51.056;3.656;2023-07-13T04:47:36;18.50;99.90
27544;DHT22;17996;51.056;3.656;2023-07-13T04:50:02;18.50;99.90
27544;DHT22;17996;51.056;3.656;2023-07-13T04:52:28;18.50;99.90
27544;DHT22;17996;51.056;3.656;2023-07-13T04:54:54;18.60;99.90
27544;DHT22;17996;51.056;3.656;2023-07-13T04:57:21;18.60;99.90
27544;DHT22;17996;51.056;3.656;2023-07-13T04:59:46;18.60;99.90
27544;DHT22;17996;51.056;3.656;2023-07-13T05:02:12;18.60;99.90
27544;DHT22;17996;51.056;3.656;2023-07-13T05:04:38;18.70;99.90
27544;DHT22;17996;51.056;3.656;2023-07-13T05:07:04;18.70;99.90
27544;DHT22;17996;51.056;3.656;2023-07-13T05:09:30;18.80;99.90
27544;DHT22;17996;51.056;3.656;2023-07-13T05:11:56;18.80;99.90
27544;DHT22;17996;51.056;3.656;2023-07-13T05:14:21;18.80;99.90
27544;DHT22;17996;51.056;3.656;2023-07-13T05:16:47;18.90;99.90
27544;DHT22;17996;51.056;3.656;2023-07-13T05:19:13;18.90;99.90
27544;DHT22;17996;51.056;3.656;2023-07-13T05:21:38;18.90;99.90
27544;DHT22;17996;51.056;3.656;2023-07-13T05:24:04;19.00;99.90
27544;DHT22;17996;51.056;3.656;2023-07-13T05:26:30;19.00;99.90
27544;DHT22;17996;51.056;3.656;2023-07-13T05:28:55;19.10;99.90
27544;DHT22;17996;51.056;3.656;2023-07-13T05:31:21;19.10;99.90
27544;DHT22;17996;51.056;3.656;2023-07-13T05:33:47;19.20;99.90
27544;DHT22;17996;51.056;3.656;2023-07-13T05:36:12;19.30;99.90
27544;DHT22;17996;51.056;3.656;2023-07-13T05:38:38;19.30;99.90
27544;DHT22;17996;51.056;3.656;2023-07-13T05:41:04;19.40;99.90
27544;DHT22;17996;51.056;3.656;2023-07-13T05:43:29;19.40;99.90
27544;DHT22;17996;51.056;3.656;2023-07-13T05:45:56;19.50;99.90
27544;DHT22;17996;51.056;3.656;2023-07-13T05:48:22;19.50;99.90
27544;DHT22;17996;51.056;3.656;2023-07-13T05:50:48;19.50;99.90
27544;DHT22;17996;51.056;3.656;2023-07-13T05:53:14;19.60;99.90
27544;DHT22;17996;51.056;3.656;2023-07-13T05:55:44;19.60;99.90
27544;DHT22;17996;51.056;3.656;2023-07-13T05:58:13;19.70;99.90
27544;DHT22;17996;51.056;3.656;2023-07-13T06:00:39;19.70;99.90
27544;DHT22;17996;51.056;3.656;2023-07-13T06:03:06;19.80;99.90
27544;DHT22;17996;51.056;3.656;2023-07-13T06:05:33;19.80;99.90
27544;DHT22;17996;51.056;3.656;2023-07-13T06:08:00;19.90;99.90
27544;DHT22;17996;51.056;3.656;2023-07-13T06:10:26;20.00;99.90
27544;DHT22;17996;51.056;3.656;2023-07-13T06:12:52;20.10;99.90
27544;DHT22;17996;51.056;3.656;2023-07-13T06:15:17;20.10;99.90
27544;DHT22;17996;51.056;3.656;2023-07-13T06:17:43;20.20;99.90
27544;DHT22;17996;51.056;3.656;2023-07-13T06:20:09;20.20;99.90
27544;DHT22;17996;51.056;3.656;2023-07-13T06:22:35;20.20;99.90
27544;DHT22;17996;51.056;3.656;2023-07-13T06:25:01;20.20;99.90
27544;DHT22;17996;51.056;3.656;2023-07-13T06:27:27;20.30;99.90
27544;DHT22;17996;51.056;3.656;2023-07-13T06:29:53;20.30;99.90
27544;DHT22;17996;51.056;3.656;2023-07-13T06:32:18;20.30;99.90
27544;DHT22;17996;51.056;3.656;2023-07-13T06:34:44;20.30;99.90
27544;DHT22;17996;51.056;3.656;2023-07-13T06:37:10;20.40;99.90
27544;DHT22;17996;51.056;3.656;2023-07-13T06:39:36;20.40;99.90
27544;DHT22;17996;51.056;3.656;2023-07-13T06:42:01;20.40;99.90
27544;DHT22;17996;51.056;3.656;2023-07-13T06:44:27;20.40;99.90
27544;DHT22;17996;51.056;3.656;2023-07-13T06:46:53;20.40;99.90
27544;DHT22;17996;51.056;3.656;2023-07-13T06:49:18;20.30;99.90
27544;DHT22;17996;51.056;3.656;2023-07-13T06:51:44;20.30;99.90
27544;DHT22;17996;51.056;3.656;2023-07-13T06:54:10;20.20;99.90
27544;DHT22;17996;51.056;3.656;2023-07-13T06:56:35;20.20;99.90
27544;DHT22;17996;51.056;3.656;2023-07-13T06:59:01;20.20;99.90
27544;DHT22;17996;51.056;3.656;2023-07-13T07:01:27;20.20;99.90
27544;DHT22;17996;51.056;3.656;2023-07-13T07:03:52;20.20;99.90
27544;DHT22;17996;51.056;3.656;2023-07-13T07:06:20;20.20;99.90
27544;DHT22;17996;51.056;3.656;2023-07-13T07:08:49;20.20;99.90
27544;DHT22;17996;51.056;3.656;2023-07-13T07:11:19;20.20;99.90
27544;DHT22;17996;51.056;3.656;2023-07-13T07:13:45;20.20;99.90
27544;DHT22;17996;51.056;3.656;2023-07-13T07:16:11;20.30;99.90
27544;DHT22;17996;51.056;3.656;2023-07-13T07:18:37;20.40;99.90
27544;DHT22;17996;51.056;3.656;2023-07-13T07:21:03;20.50;99.90
27544;DHT22;17996;51.056;3.656;2023-07-13T07:23:28;20.60;99.90
27544;DHT22;17996;51.056;3.656;2023-07-13T07:25:54;20.70;99.90
27544;DHT22;17996;51.056;3.656;2023-07-13T07:28:20;20.90;99.90
27544;DHT22;17996;51.056;3.656;2023-07-13T07:30:46;20.90;99.90
27544;DHT22;17996;51.056;3.656;2023-07-13T07:33:12;21.00;99.90
27544;DHT22;17996;51.056;3.656;2023-07-13T07:35:37;21.00;99.90
27544;DHT22;17996;51.056;3.656;2023-07-13T07:38:03;20.90;99.90
27544;DHT22;17996;51.056;3.656;2023-07-13T07:40:29;20.90;99.90
27544;DHT22;17996;51.056;3.656;2023-07-13T07:42:55;20.90;99.90
27544;DHT22;17996;51.056;3.656;2023-07-13T07:45:21;21.00;99.90
27544;DHT22;17996;51.056;3.656;2023-07-13T07:47:47;21.00;99.90
27544;DHT22;17996;51.056;3.656;2023-07-13T07:50:13;21.10;99.90
27544;DHT22;17996;51.056;3.656;2023-07-13T07:52:38;21.20;99.90
27544;DHT22;17996;51.056;3.656;2023-07-13T07:55:06;21.20;99.90
27544;DHT22;17996;51.056;3.656;2023-07-13T07:57:32;21.30;99.90
27544;DHT22;17996;51.056;3.656;2023-07-13T07:59:58;21.20;99.90
27544;DHT22;17996;51.056;3.656;2023-07-13T08:02:24;21.10;99.90
27544;DHT22;17996;51.056;3.656;2023-07-13T08:04:51;21.00;99.90
27544;DHT22;17996;51.056;3.656;2023-07-13T08:07:16;20.90;99.90
27544;DHT22;17996;51.056;3.656;2023-07-13T08:09:42;21.00;99.90
27544;DHT22;17996;51.056;3.656;2023-07-13T08:12:08;20.90;99.90
27544;DHT22;17996;51.056;3.656;2023-07-13T08:14:34;21.00;99.90
27544;DHT22;17996;51.056;3.656;2023-07-13T08:16:59;21.10;99.90
27544;DHT22;17996;51.056;3.656;2023-07-13T08:19:25;21.10;99.90
27544;DHT22;17996;51.056;3.656;2023-07-13T08:21:51;21.20;99.90
27544;DHT22;17996;51.056;3.656;2023-07-13T08:24:16;21.10;99.90
27544;DHT22;17996;51.056;3.656;2023-07-13T08:26:44;21.20;99.90
27544;DHT22;17996;51.056;3.656;2023-07-13T08:29:10;21.30;99.90
27544;DHT22;17996;51.056;3.656;2023-07-13T08:31:36;21.20;99.90
27544;DHT22;17996;51.056;3.656;2023-07-13T08:34:02;21.00;99.90
27544;DHT22;17996;51.056;3.656;2023-07-13T08:36:28;21.00;99.90
27544;DHT22;17996;51.056;3.656;2023-07-13T08:38:54;21.10;99.90
27544;DHT22;17996;51.056;3.656;2023-07-13T08:41:22;21.10;99.90
27544;DHT22;17996;51.056;3.656;2023-07-13T08:43:51;21.40;99.90
27544;DHT22;17996;51.056;3.656;2023-07-13T08:46:25;21.50;99.90
27544;DHT22;17996;51.056;3.656;2023-07-13T08:48:55;21.30;99.90
27544;DHT22;17996;51.056;3.656;2023-07-13T08:51:44;21.40;99.90
27544;DHT22;17996;51.056;3.656;2023-07-13T08:54:32;21.60;99.90
27544;DHT22;17996;51.056;3.656;2023-07-13T08:57:00;21.50;99.90
27544;DHT22;17996;51.056;3.656;2023-07-13T08:59:29;21.50;99.90
27544;DHT22;17996;51.056;3.656;2023-07-13T09:10:16;21.90;99.90
27544;DHT22;17996;51.056;3.656;2023-07-13T09:15:48;22.10;99.90
27544;DHT22;17996;51.056;3.656;2023-07-13T09:18:36;22.10;99.90
27544;DHT22;17996;51.056;3.656;2023-07-13T09:23:36;22.20;99.90
27544;DHT22;17996;51.056;3.656;2023-07-13T09:26:22;22.20;99.90
27544;DHT22;17996;51.056;3.656;2023-07-13T09:28:53;22.30;99.90
27544;DHT22;17996;51.056;3.656;2023-07-13T09:31:38;22.40;99.90
27544;DHT22;17996;51.056;3.656;2023-07-13T09:34:10;22.50;99.90
27544;DHT22;17996;51.056;3.656;2023-07-13T09:36:35;22.40;99.90
27544;DHT22;17996;51.056;3.656;2023-07-13T09:41:55;22.50;99.90
27544;DHT22;17996;51.056;3.656;2023-07-13T09:44:33;22.50;99.90
27544;DHT22;17996;51.056;3.656;2023-07-13T09:46:59;22.50;99.90
27544;DHT22;17996;51.056;3.656;2023-07-13T09:49:26;22.50;99.90
27544;DHT22;17996;51.056;3.656;2023-07-13T09:52:04;22.50;99.90
27544;DHT22;17996;51.056;3.656;2023-07-13T09:54:34;22.70;99.90
27544;DHT22;17996;51.056;3.656;2023-07-13T09:57:00;22.70;99.90
27544;DHT22;17996;51.056;3.656;2023-07-13T09:59:34;22.80;99.90
27544;DHT22;17996;51.056;3.656;2023-07-13T10:02:00;22.90;99.90
27544;DHT22;17996;51.056;3.656;2023-07-13T10:04:34;23.10;99.90
27544;DHT22;17996;51.056;3.656;2023-07-13T10:07:07;23.40;99.90
27544;DHT22;17996;51.056;3.656;2023-07-13T10:09:33;23.60;99.90
27544;DHT22;17996;51.056;3.656;2023-07-13T10:12:00;23.80;99.90
27544;DHT22;17996;51.056;3.656;2023-07-13T10:14:26;24.00;99.90
27544;DHT22;17996;51.056;3.656;2023-07-13T10:17:02;24.30;99.90
27544;DHT22;17996;51.056;3.656;2023-07-13T10:19:31;24.60;99.90
27544;DHT22;17996;51.056;3.656;2023-07-13T10:22:09;24.80;99.90
27544;DHT22;17996;51.056;3.656;2023-07-13T10:24:39;24.90;99.70
27544;DHT22;17996;51.056;3.656;2023-07-13T10:27:23;24.90;99.20
27544;DHT22;17996;51.056;3.656;2023-07-13T10:30:12;24.70;98.00
27544;DHT22;17996;51.056;3.656;2023-07-13T10:32:38;24.60;97.80
27544;DHT22;17996;51.056;3.656;2023-07-13T10:35:04;24.30;98.60
27544;DHT22;17996;51.056;3.656;2023-07-13T10:38:01;24.20;99.20
27544;DHT22;17996;51.056;3.656;2023-07-13T10:43:09;23.40;99.80
27544;DHT22;17996;51.056;3.656;2023-07-13T10:45:36;22.60;99.90
27544;DHT22;17996;51.056;3.656;2023-07-13T10:48:04;21.70;99.90
27544;DHT22;17996;51.056;3.656;2023-07-13T10:50:31;20.50;99.90
27544;DHT22;17996;51.056;3.656;2023-07-13T10:53:03;19.60;99.90
27544;DHT22;17996;51.056;3.656;2023-07-13T10:58:50;18.60;99.90
27544;DHT22;17996;51.056;3.656;2023-07-13T11:01:16;18.30;99.90
27544;DHT22;17996;51.056;3.656;2023-07-13T11:04:00;18.20;99.90
27544;DHT22;17996;51.056;3.656;2023-07-13T11:11:42;18.80;99.90
27544;DHT22;17996;51.056;3.656;2023-07-13T11:14:37;18.90;99.90
27544;DHT22;17996;51.056;3.656;2023-07-13T11:19:51;19.60;99.90
27544;DHT22;17996;51.056;3.656;2023-07-13T11:22:23;19.80;99.90
27544;DHT22;17996;51.056;3.656;2023-07-13T11:24:57;20.10;99.90
27544;DHT22;17996;51.056;3.656;2023-07-13T11:27:43;20.30;99.90
27544;DHT22;17996;51.056;3.656;2023-07-13T11:30:35;20.60;99.90
27544;DHT22;17996;51.056;3.656;2023-07-13T11:33:21;21.00;99.90
27544;DHT22;17996;51.056;3.656;2023-07-13T11:38:36;21.40;99.90
27544;DHT22;17996;51.056;3.656;2023-07-13T11:43:33;21.30;99.90
27544;DHT22;17996;51.056;3.656;2023-07-13T11:46:22;21.30;99.90
27544;DHT22;17996;51.056;3.656;2023-07-13T11:48:48;21.50;99.90
27544;DHT22;17996;51.056;3.656;2023-07-13T11:51:40;21.40;99.90
27544;DHT22;17996;51.056;3.656;2023-07-13T11:54:25;21.30;99.90
27544;DHT22;17996;51.056;3.656;2023-07-13T11:56:53;21.40;99.90
27544;DHT22;17996;51.056;3.656;2023-07-13T11:59:20;21.30;99.90
27544;DHT22;17996;51.056;3.656;2023-07-13T12:01:51;21.20;99.90
27544;DHT22;17996;51.056;3.656;2023-07-13T12:04:36;21.20;99.90
27544;DHT22;17996;51.056;3.656;2023-07-13T12:07:20;21.10;99.90
27544;DHT22;17996;51.056;3.656;2023-07-13T12:09:46;21.10;99.90
27544;DHT22;17996;51.056;3.656;2023-07-13T12:12:18;21.00;99.90
27544;DHT22;17996;51.056;3.656;2023-07-13T12:14:44;20.90;99.90
27544;DHT22;17996;51.056;3.656;2023-07-13T12:17:19;20.90;99.90
27544;DHT22;17996;51.056;3.656;2023-07-13T12:19:47;20.80;99.90
27544;DHT22;17996;51.056;3.656;2023-07-13T12:22:16;20.80;99.90
27544;DHT22;17996;51.056;3.656;2023-07-13T12:24:43;20.80;99.90
27544;DHT22;17996;51.056;3.656;2023-07-13T12:27:24;21.10;99.90
27544;DHT22;17996;51.056;3.656;2023-07-13T12:29:59;21.30;99.90
27544;DHT22;17996;51.056;3.656;2023-07-13T12:32:26;21.40;99.90
27544;DHT22;17996;51.056;3.656;2023-07-13T12:34:55;21.50;99.90
27544;DHT22;17996;51.056;3.656;2023-07-13T12:37:22;21.60;99.90
27544;DHT22;17996;51.056;3.656;2023-07-13T12:39:49;21.70;99.90
27544;DHT22;17996;51.056;3.656;2023-07-13T12:44:58;22.00;99.90
27544;DHT22;17996;51.056;3.656;2023-07-13T12:47:25;22.30;99.90
27544;DHT22;17996;51.056;3.656;2023-07-13T12:49:56;22.30;99.90
27544;DHT22;17996;51.056;3.656;2023-07-13T12:52:31;22.60;99.90
27544;DHT22;17996;51.056;3.656;2023-07-13T12:55:14;22.70;99.90
27544;DHT22;17996;51.056;3.656;2023-07-13T12:57:49;22.90;99.90
27544;DHT22;17996;51.056;3.656;2023-07-13T13:00:32;22.40;99.90
27544;DHT22;17996;51.056;3.656;2023-07-13T13:03:07;22.30;99.90
27544;DHT22;17996;51.056;3.656;2023-07-13T13:05:37;22.20;99.90
27544;DHT22;17996;51.056;3.656;2023-07-13T13:08:03;22.00;99.90
27544;DHT22;17996;51.056;3.656;2023-07-13T13:10:29;21.90;99.90
27544;DHT22;17996;51.056;3.656;2023-07-13T13:12:55;22.00;99.90
27544;DHT22;17996;51.056;3.656;2023-07-13T13:15:20;22.00;99.90
27544;DHT22;17996;51.056;3.656;2023-07-13T13:17:47;22.30;99.90
27544;DHT22;17996;51.056;3.656;2023-07-13T13:20:18;22.40;99.90
27544;DHT22;17996;51.056;3.656;2023-07-13T13:22:44;22.30;99.90
27544;DHT22;17996;51.056;3.656;2023-07-13T13:25:11;22.00;99.90
27544;DHT22;17996;51.056;3.656;2023-07-13T13:27:37;21.70;99.90
27544;DHT22;17996;51.056;3.656;2023-07-13T13:30:03;21.90;99.90
27544;DHT22;17996;51.056;3.656;2023-07-13T13:32:29;21.70;99.90
27544;DHT22;17996;51.056;3.656;2023-07-13T13:34:54;21.60;99.90
27544;DHT22;17996;51.056;3.656;2023-07-13T13:37:22;21.60;99.90
27544;DHT22;17996;51.056;3.656;2023-07-13T13:39:48;21.70;99.90
27544;DHT22;17996;51.056;3.656;2023-07-13T13:42:14;21.60;99.90
27544;DHT22;17996;51.056;3.656;2023-07-13T13:44:40;21.60;99.90
27544;DHT22;17996;51.056;3.656;2023-07-13T13:47:28;21.80;99.90
27544;DHT22;17996;51.056;3.656;2023-07-13T13:49:54;22.00;99.90
27544;DHT22;17996;51.056;3.656;2023-07-13T13:52:20;22.20;99.90
27544;DHT22;17996;51.056;3.656;2023-07-13T13:54:46;22.30;99.90
27544;DHT22;17996;51.056;3.656;2023-07-13T13:57:12;22.60;99.90
27544;DHT22;17996;51.056;3.656;2023-07-13T13:59:38;22.70;99.90
27544;DHT22;17996;51.056;3.656;2023-07-13T14:02:27;22.80;99.90
27544;DHT22;17996;51.056;3.656;2023-07-13T14:04:59;22.80;99.90
27544;DHT22;17996;51.056;3.656;2023-07-13T14:07:26;23.00;99.90
27544;DHT22;17996;51.056;3.656;2023-07-13T14:09:58;23.40;99.90
27544;DHT22;17996;51.056;3.656;2023-07-13T14:12:27;23.70;99.90
27544;DHT22;17996;51.056;3.656;2023-07-13T14:14:55;23.50;99.90
27544;DHT22;17996;51.056;3.656;2023-07-13T14:17:24;23.40;99.90
27544;DHT22;17996;51.056;3.656;2023-07-13T14:19:52;23.40;99.90
27544;DHT22;17996;51.056;3.656;2023-07-13T14:22:26;23.70;99.90
27544;DHT22;17996;51.056;3.656;2023-07-13T14:24:53;24.10;99.90
27544;DHT22;17996;51.056;3.656;2023-07-13T14:27:19;24.40;99.90
27544;DHT22;17996;51.056;3.656;2023-07-13T14:29:44;24.60;99.90
27544;DHT22;17996;51.056;3.656;2023-07-13T14:32:11;24.90;99.90
27544;DHT22;17996;51.056;3.656;2023-07-13T14:34:37;25.40;99.90
27544;DHT22;17996;51.056;3.656;2023-07-13T14:37:03;25.30;99.90
27544;DHT22;17996;51.056;3.656;2023-07-13T14:39:30;25.40;99.90
27544;DHT22;17996;51.056;3.656;2023-07-13T14:41:56;25.70;99.90
27544;DHT22;17996;51.056;3.656;2023-07-13T14:44:28;26.00;99.90
27544;DHT22;17996;51.056;3.656;2023-07-13T14:46:56;26.60;99.90
27544;DHT22;17996;51.056;3.656;2023-07-13T14:49:35;27.30;99.90
27544;DHT22;17996;51.056;3.656;2023-07-13T14:52:05;28.30;99.90
27544;DHT22;17996;51.056;3.656;2023-07-13T14:54:36;28.30;97.70
27544;DHT22;17996;51.056;3.656;2023-07-13T14:57:14;27.70;96.50
27544;DHT22;17996;51.056;3.656;2023-07-13T14:59:41;26.90;96.00
27544;DHT22;17996;51.056;3.656;2023-07-13T15:02:29;26.20;97.40
27544;DHT22;17996;51.056;3.656;2023-07-13T15:04:57;25.60;97.80
27544;DHT22;17996;51.056;3.656;2023-07-13T15:07:23;25.00;97.60
27544;DHT22;17996;51.056;3.656;2023-07-13T15:09:49;24.80;97.30
27544;DHT22;17996;51.056;3.656;2023-07-13T15:12:16;24.70;98.40
27544;DHT22;17996;51.056;3.656;2023-07-13T15:14:42;24.70;99.00
27544;DHT22;17996;51.056;3.656;2023-07-13T15:17:33;24.80;97.70
27544;DHT22;17996;51.056;3.656;2023-07-13T15:20:05;25.20;96.70
27544;DHT22;17996;51.056;3.656;2023-07-13T15:22:32;25.40;95.00
27544;DHT22;17996;51.056;3.656;2023-07-13T15:24:57;25.70;95.10
27544;DHT22;17996;51.056;3.656;2023-07-13T15:27:23;26.10;94.70
27544;DHT22;17996;51.056;3.656;2023-07-13T15:29:48;25.90;93.10
27544;DHT22;17996;51.056;3.656;2023-07-13T15:32:14;26.30;94.50
27544;DHT22;17996;51.056;3.656;2023-07-13T15:34:40;27.00;92.80
27544;DHT22;17996;51.056;3.656;2023-07-13T15:37:14;27.70;92.50
27544;DHT22;17996;51.056;3.656;2023-07-13T15:39:41;28.40;91.90
27544;DHT22;17996;51.056;3.656;2023-07-13T15:42:15;28.50;88.80
27544;DHT22;17996;51.056;3.656;2023-07-13T15:44:41;29.10;89.10
27544;DHT22;17996;51.056;3.656;2023-07-13T15:47:11;29.70;86.90
27544;DHT22;17996;51.056;3.656;2023-07-13T15:49:38;30.00;84.80
27544;DHT22;17996;51.056;3.656;2023-07-13T15:52:05;30.30;81.90
27544;DHT22;17996;51.056;3.656;2023-07-13T15:54:31;29.90;82.60
27544;DHT22;17996;51.056;3.656;2023-07-13T15:57:00;29.10;82.30
27544;DHT22;17996;51.056;3.656;2023-07-13T15:59:26;28.50;83.90
27544;DHT22;17996;51.056;3.656;2023-07-13T16:01:52;27.90;84.30
27544;DHT22;17996;51.056;3.656;2023-07-13T16:04:18;27.60;85.60
27544;DHT22;17996;51.056;3.656;2023-07-13T16:06:45;27.20;85.40
27544;DHT22;17996;51.056;3.656;2023-07-13T16:09:19;26.80;86.00
27544;DHT22;17996;51.056;3.656;2023-07-13T16:11:47;27.60;88.90
27544;DHT22;17996;51.056;3.656;2023-07-13T16:14:14;28.30;87.90
27544;DHT22;17996;51.056;3.656;2023-07-13T16:16:41;29.00;85.20
27544;DHT22;17996;51.056;3.656;2023-07-13T16:19:08;29.70;85.40
27544;DHT22;17996;51.056;3.656;2023-07-13T16:21:44;30.40;84.70